sensor_id;sensor_type;location;lat;lon;timestamp;pressure;altitude;pressure_sealevel;temperature;humidity
22000;BME280;11164;48.818;2.322;2023-04-01T00:00:03;99317.09;;;12.24;47.03
22000;BME280;11164;48.818;2.322;2023-04-01T00:02:29;99330.06;;;11.98;47.43
22000;BME280;11164;48.818;2.322;2023-04-01T00:04:55;99332.03;;;12.15;47.06
22000;BME280;11164;48.818;2.322;2023-04-01T00:07:20;99346.38;;;12.15;47.46
22000;BME280;11164;48.818;2.322;2023-04-01T00:09:46;99328.81;;;12.30;46.67
22000;BME280;11164;48.818;2.322;2023-04-01T00:12:11;99329.72;;;11.95;47.45
22000;BME280;11164;48.818;2.322;2023-04-01T00:14:36;99329.59;;;12.02;47.43
22000;BME280;11164;48.818;2.322;2023-04-01T00:17:05;99322.22;;;11.97;47.51
22000;BME280;11164;48.818;2.322;2023-04-01T00:19:31;99334.06;;;12.36;46.39
22000;BME280;11164;48.818;2.322;2023-04-01T00:21:57;99317.28;;;12.34;46.08
22000;BME280;11164;48.818;2.322;2023-04-01T00:24:23;99343.94;;;12.43;46.90
22000;BME280;11164;48.818;2.322;2023-04-01T00:26:48;99341.78;;;12.45;46.14
22000;BME280;11164;48.818;2.322;2023-04-01T00:29:14;99329.34;;;12.15;46.97
22000;BME280;11164;48.818;2.322;2023-04-01T00:31:39;99345.22;;;12.11;47.72
22000;BME280;11164;48.818;2.322;2023-04-01T00:34:05;99348.91;;;12.34;47.51
22000;BME280;11164;48.818;2.322;2023-04-01T00:36:30;99329.72;;;12.07;47.30
22000;BME280;11164;48.818;2.322;2023-04-01T00:38:57;99340.63;;;12.12;47.65
22000;BME280;11164;48.818;2.322;2023-04-01T00:41:23;99351.94;;;12.37;46.94
22000;BME280;11164;48.818;2.322;2023-04-01T00:43:51;99338.16;;;12.68;45.96
22000;BME280;11164;48.818;2.322;2023-04-01T00:46:17;99337.53;;;12.49;46.32
22000;BME280;11164;48.818;2.322;2023-04-01T00:48:47;99337.91;;;12.12;48.16
22000;BME280;11164;48.818;2.322;2023-04-01T00:51:25;99355.69;;;11.96;49.13
22000;BME280;11164;48.818;2.322;2023-04-01T00:53:54;99354.66;;;12.37;47.17
22000;BME280;11164;48.818;2.322;2023-04-01T00:56:26;99340.47;;;11.78;48.93
22000;BME280;11164;48.818;2.322;2023-04-01T00:59:00;99347.34;;;12.38;47.08
22000;BME280;11164;48.818;2.322;2023-04-01T01:01:27;99324.03;;;12.20;47.23
22000;BME280;11164;48.818;2.322;2023-04-01T01:03:54;99327.88;;;12.24;46.97
22000;BME280;11164;48.818;2.322;2023-04-01T01:06:26;99328.88;;;12.18;47.29
22000;BME280;11164;48.818;2.322;2023-04-01T01:09:09;99332.47;;;11.83;49.56
22000;BME280;11164;48.818;2.322;2023-04-01T01:11:48;99329.59;;;12.02;48.79
22000;BME280;11164;48.818;2.322;2023-04-01T01:14:35;99335.09;;;12.18;48.68
22000;BME280;11164;48.818;2.322;2023-04-01T01:29:11;99327.41;;;12.27;48.59
22000;BME280;11164;48.818;2.322;2023-04-01T01:31:28;99330.28;;;12.66;47.01
22000;BME280;11164;48.818;2.322;2023-04-01T01:34:08;99344.47;;;12.56;46.88
22000;BME280;11164;48.818;2.322;2023-04-01T01:36:40;99329.63;;;11.90;48.45
22000;BME280;11164;48.818;2.322;2023-04-01T01:39:08;99342.31;;;12.01;48.89
22000;BME280;11164;48.818;2.322;2023-04-01T01:41:36;99341.84;;;11.92;48.62
22000;BME280;11164;48.818;2.322;2023-04-01T01:44:06;99349.25;;;11.73;49.15
22000;BME280;11164;48.818;2.322;2023-04-01T01:46:32;99353.47;;;11.69;49.71
22000;BME280;11164;48.818;2.322;2023-04-01T01:48:59;99342.94;;;11.56;49.20
22000;BME280;11164;48.818;2.322;2023-04-01T01:51:27;99347.88;;;11.59;49.53
22000;BME280;11164;48.818;2.322;2023-04-01T01:53:53;99348.09;;;11.57;49.25
22000;BME280;11164;48.818;2.322;2023-04-01T01:56:22;99361.25;;;11.42;50.38
22000;BME280;11164;48.818;2.322;2023-04-01T01:58:52;99351.03;;;11.79;48.89
22000;BME280;11164;48.818;2.322;2023-04-01T02:01:23;99363.91;;;12.01;48.97
22000;BME280;11164;48.818;2.322;2023-04-01T02:03:51;99365.22;;;11.51;50.71
22000;BME280;11164;48.818;2.322;2023-04-01T02:06:19;99369.19;;;11.72;50.41
22000;BME280;11164;48.818;2.322;2023-04-01T02:08:56;99359.34;;;11.42;50.40
22000;BME280;11164;48.818;2.322;2023-04-01T02:11:27;99372.63;;;11.68;50.16
22000;BME280;11164;48.818;2.322;2023-04-01T02:13:59;99350.09;;;11.38;50.33
22000;BME280;11164;48.818;2.322;2023-04-01T02:16:31;99349.25;;;11.02;51.38
22000;BME280;11164;48.818;2.322;2023-04-01T02:19:00;99342.56;;;11.76;49.23
22000;BME280;11164;48.818;2.322;2023-04-01T02:21:31;99369.97;;;12.20;48.28
22000;BME280;11164;48.818;2.322;2023-04-01T02:23:59;99354.19;;;11.88;48.64
22000;BME280;11164;48.818;2.322;2023-04-01T02:26:26;99355.69;;;11.72;49.11
22000;BME280;11164;48.818;2.322;2023-04-01T02:28:53;99362.53;;;11.63;49.44
22000;BME280;11164;48.818;2.322;2023-04-01T02:31:20;99366.19;;;12.21;47.89
22000;BME280;11164;48.818;2.322;2023-04-01T02:33:46;99340.72;;;12.17;47.73
22000;BME280;11164;48.818;2.322;2023-04-01T02:36:13;99363.00;;;12.65;46.57
22000;BME280;11164;48.818;2.322;2023-04-01T02:38:40;99358.09;;;12.21;47.62
22000;BME280;11164;48.818;2.322;2023-04-01T02:41:05;99361.47;;;12.28;47.47
22000;BME280;11164;48.818;2.322;2023-04-01T02:43:31;99372.81;;;12.13;47.96
22000;BME280;11164;48.818;2.322;2023-04-01T02:45:57;99376.56;;;12.12;47.69
22000;BME280;11164;48.818;2.322;2023-04-01T02:48:22;99365.00;;;12.29;47.40
22000;BME280;11164;48.818;2.322;2023-04-01T02:50:48;99359.72;;;12.34;47.02
22000;BME280;11164;48.818;2.322;2023-04-01T02:53:14;99391.16;;;12.11;47.58
22000;BME280;11164;48.818;2.322;2023-04-01T02:55:40;99383.03;;;12.11;47.05
22000;BME280;11164;48.818;2.322;2023-04-01T02:58:05;99368.53;;;11.89;48.53
22000;BME280;11164;48.818;2.322;2023-04-01T03:00:31;99362.78;;;12.26;47.22
22000;BME280;11164;48.818;2.322;2023-04-01T03:02:56;99372.25;;;12.69;46.13
22000;BME280;11164;48.818;2.322;2023-04-01T03:05:22;99378.34;;;12.76;45.77
22000;BME280;11164;48.818;2.322;2023-04-01T03:07:48;99398.91;;;12.08;47.74
22000;BME280;11164;48.818;2.322;2023-04-01T03:10:13;99380.81;;;11.96;47.36
22000;BME280;11164;48.818;2.322;2023-04-01T03:12:39;99380.34;;;12.40;46.71
22000;BME280;11164;48.818;2.322;2023-04-01T03:15:05;99382.81;;;12.42;46.71
22000;BME280;11164;48.818;2.322;2023-04-01T03:17:30;99382.06;;;12.17;47.00
22000;BME280;11164;48.818;2.322;2023-04-01T03:19:56;99374.47;;;12.43;46.47
22000;BME280;11164;48.818;2.322;2023-04-01T03:22:21;99394.56;;;12.07;47.40
22000;BME280;11164;48.818;2.322;2023-04-01T03:24:48;99399.16;;;12.47;46.51
22000;BME280;11164;48.818;2.322;2023-04-01T03:27:13;99386.91;;;12.04;47.16
22000;BME280;11164;48.818;2.322;2023-04-01T03:29:38;99403.41;;;11.90;47.82
22000;BME280;11164;48.818;2.322;2023-04-01T03:32:04;99401.22;;;12.16;46.94
22000;BME280;11164;48.818;2.322;2023-04-01T03:34:30;99391.81;;;12.30;46.33
22000;BME280;11164;48.818;2.322;2023-04-01T03:36:56;99398.03;;;12.19;46.65
22000;BME280;11164;48.818;2.322;2023-04-01T03:39:21;99429.56;;;11.90;47.51
22000;BME280;11164;48.818;2.322;2023-04-01T03:41:47;99397.50;;;11.93;47.46
22000;BME280;11164;48.818;2.322;2023-04-01T03:44:12;99396.78;;;12.10;46.86
22000;BME280;11164;48.818;2.322;2023-04-01T03:46:38;99398.72;;;12.26;46.42
22000;BME280;11164;48.818;2.322;2023-04-01T03:49:06;99389.16;;;11.83;47.76
22000;BME280;11164;48.818;2.322;2023-04-01T03:51:39;99437.13;;;12.40;46.05
22000;BME280;11164;48.818;2.322;2023-04-01T03:54:05;99404.28;;;12.60;45.66
22000;BME280;11164;48.818;2.322;2023-04-01T03:56:31;99421.34;;;12.49;46.22
22000;BME280;11164;48.818;2.322;2023-04-01T03:58:57;99421.56;;;11.95;47.61
22000;BME280;11164;48.818;2.322;2023-04-01T04:01:22;99414.22;;;11.78;47.82
22000;BME280;11164;48.818;2.322;2023-04-01T04:03:48;99415.44;;;12.64;45.64
22000;BME280;11164;48.818;2.322;2023-04-01T04:06:16;99409.22;;;12.63;45.75
22000;BME280;11164;48.818;2.322;2023-04-01T04:08:41;99426.63;;;12.96;44.82
22000;BME280;11164;48.818;2.322;2023-04-01T04:11:08;99414.72;;;12.97;44.94
22000;BME280;11164;48.818;2.322;2023-04-01T04:13:34;99435.50;;;12.68;45.42
22000;BME280;11164;48.818;2.322;2023-04-01T04:15:59;99413.84;;;12.51;45.93
22000;BME280;11164;48.818;2.322;2023-04-01T04:18:24;99421.38;;;12.78;45.11
22000;BME280;11164;48.818;2.322;2023-04-01T04:20:50;99427.09;;;12.52;45.53
22000;BME280;11164;48.818;2.322;2023-04-01T04:23:17;99426.84;;;12.13;46.65
22000;BME280;11164;48.818;2.322;2023-04-01T04:28:20;99436.75;;;12.48;45.91
22000;BME280;11164;48.818;2.322;2023-04-01T04:30:45;99435.16;;;12.64;45.74
22000;BME280;11164;48.818;2.322;2023-04-01T04:33:11;99431.91;;;12.10;46.89
22000;BME280;11164;48.818;2.322;2023-04-01T04:35:36;99441.16;;;12.26;46.57
22000;BME280;11164;48.818;2.322;2023-04-01T04:38:01;99444.06;;;12.48;46.21
22000;BME280;11164;48.818;2.322;2023-04-01T04:40:26;99428.81;;;12.30;46.31
22000;BME280;11164;48.818;2.322;2023-04-01T04:42:52;99449.16;;;12.32;46.29
22000;BME280;11164;48.818;2.322;2023-04-01T04:45:17;99439.81;;;12.81;45.06
22000;BME280;11164;48.818;2.322;2023-04-01T04:47:43;99436.25;;;12.92;44.73
22000;BME280;11164;48.818;2.322;2023-04-01T04:50:08;99443.09;;;12.83;44.94
22000;BME280;11164;48.818;2.322;2023-04-01T04:52:33;99454.19;;;12.41;45.73
22000;BME280;11164;48.818;2.322;2023-04-01T04:54:59;99432.59;;;12.17;46.32
22000;BME280;11164;48.818;2.322;2023-04-01T04:57:24;99447.41;;;12.96;44.66
22000;BME280;11164;48.818;2.322;2023-04-01T04:59:50;99436.28;;;12.80;44.67
22000;BME280;11164;48.818;2.322;2023-04-01T05:02:15;99442.84;;;12.96;44.39
22000;BME280;11164;48.818;2.322;2023-04-01T05:04:40;99445.31;;;13.15;43.85
22000;BME280;11164;48.818;2.322;2023-04-01T05:07:06;99445.25;;;12.81;44.42
22000;BME280;11164;48.818;2.322;2023-04-01T05:09:31;99446.75;;;12.88;44.62
22000;BME280;11164;48.818;2.322;2023-04-01T05:11:57;99454.63;;;12.78;44.73
22000;BME280;11164;48.818;2.322;2023-04-01T05:14:22;99461.78;;;12.44;45.03
22000;BME280;11164;48.818;2.322;2023-04-01T05:16:48;99455.97;;;12.75;44.66
22000;BME280;11164;48.818;2.322;2023-04-01T05:19:14;99458.34;;;12.08;45.87
22000;BME280;11164;48.818;2.322;2023-04-01T05:21:39;99467.03;;;12.62;45.02
22000;BME280;11164;48.818;2.322;2023-04-01T05:24:08;99459.16;;;11.85;46.40
22000;BME280;11164;48.818;2.322;2023-04-01T05:26:33;99450.88;;;12.38;45.26
22000;BME280;11164;48.818;2.322;2023-04-01T05:28:59;99467.63;;;12.00;46.40
22000;BME280;11164;48.818;2.322;2023-04-01T05:31:24;99457.47;;;12.43;45.40
22000;BME280;11164;48.818;2.322;2023-04-01T05:33:49;99457.34;;;12.37;45.20
22000;BME280;11164;48.818;2.322;2023-04-01T05:36:16;99473.56;;;12.37;45.37
22000;BME280;11164;48.818;2.322;2023-04-01T05:38:42;99481.69;;;12.37;45.14
22000;BME280;11164;48.818;2.322;2023-04-01T05:41:08;99476.59;;;12.53;44.78
22000;BME280;11164;48.818;2.322;2023-04-01T05:43:36;99476.50;;;12.48;44.95
22000;BME280;11164;48.818;2.322;2023-04-01T05:46:01;99480.34;;;12.64;44.53
22000;BME280;11164;48.818;2.322;2023-04-01T05:48:27;99479.09;;;12.43;45.24
22000;BME280;11164;48.818;2.322;2023-04-01T05:50:52;99494.19;;;12.67;44.48
22000;BME280;11164;48.818;2.322;2023-04-01T05:53:18;99491.31;;;12.33;45.27
22000;BME280;11164;48.818;2.322;2023-04-01T05:55:43;99497.09;;;11.90;46.07
22000;BME280;11164;48.818;2.322;2023-04-01T05:58:08;99496.44;;;12.59;44.65
22000;BME280;11164;48.818;2.322;2023-04-01T06:00:33;99500.84;;;12.88;43.92
22000;BME280;11164;48.818;2.322;2023-04-01T06:02:59;99509.56;;;12.14;45.76
22000;BME280;11164;48.818;2.322;2023-04-01T06:05:28;99499.81;;;12.78;44.27
22000;BME280;11164;48.818;2.322;2023-04-01T06:08:06;99512.34;;;12.96;43.76
22000;BME280;11164;48.818;2.322;2023-04-01T06:10:53;99514.16;;;12.78;43.90
22000;BME280;11164;48.818;2.322;2023-04-01T06:13:34;99510.22;;;12.45;44.45
22000;BME280;11164;48.818;2.322;2023-04-01T06:16:22;99512.44;;;12.48;44.48
22000;BME280;11164;48.818;2.322;2023-04-01T06:18:53;99510.09;;;12.40;44.99
22000;BME280;11164;48.818;2.322;2023-04-01T06:21:50;99511.97;;;12.63;44.04
22000;BME280;11164;48.818;2.322;2023-04-01T06:24:42;99522.56;;;12.53;44.37
22000;BME280;11164;48.818;2.322;2023-04-01T06:27:29;99561.13;;;12.48;43.96
22000;BME280;11164;48.818;2.322;2023-04-01T06:30:16;99526.03;;;12.77;43.54
22000;BME280;11164;48.818;2.322;2023-04-01T06:33:05;99531.34;;;12.72;44.09
22000;BME280;11164;48.818;2.322;2023-04-01T06:38:31;99538.84;;;12.93;43.57
22000;BME280;11164;48.818;2.322;2023-04-01T06:46:45;99542.22;;;13.29;42.06
22000;BME280;11164;48.818;2.322;2023-04-01T06:49:33;99536.38;;;13.21;42.05
22000;BME280;11164;48.818;2.322;2023-04-01T06:52:10;99536.00;;;13.00;42.96
22000;BME280;11164;48.818;2.322;2023-04-01T06:54:43;99534.84;;;12.96;43.62
22000;BME280;11164;48.818;2.322;2023-04-01T06:57:22;99544.41;;;13.16;42.53
22000;BME280;11164;48.818;2.322;2023-04-01T06:59:51;99544.69;;;13.02;43.43
22000;BME280;11164;48.818;2.322;2023-04-01T07:04:58;99557.56;;;13.24;42.94
22000;BME280;11164;48.818;2.322;2023-04-01T07:07:33;99535.97;;;13.58;42.53
22000;BME280;11164;48.818;2.322;2023-04-01T07:10:04;99552.66;;;13.09;43.36
22000;BME280;11164;48.818;2.322;2023-04-01T07:12:46;99550.50;;;13.23;41.72
22000;BME280;11164;48.818;2.322;2023-04-01T07:18:21;99560.84;;;12.85;42.42
22000;BME280;11164;48.818;2.322;2023-04-01T07:20:49;99561.31;;;12.82;43.86
22000;BME280;11164;48.818;2.322;2023-04-01T07:23:23;99549.44;;;12.71;42.60
22000;BME280;11164;48.818;2.322;2023-04-01T07:25:56;99555.97;;;13.40;41.97
22000;BME280;11164;48.818;2.322;2023-04-01T07:28:23;99567.59;;;13.69;41.84
22000;BME280;11164;48.818;2.322;2023-04-01T07:33:39;99566.06;;;13.61;41.69
22000;BME280;11164;48.818;2.322;2023-04-01T07:36:17;99565.66;;;13.53;42.08
22000;BME280;11164;48.818;2.322;2023-04-01T07:38:52;99592.94;;;13.34;41.96
22000;BME280;11164;48.818;2.322;2023-04-01T07:44:26;99558.44;;;13.41;40.92
22000;BME280;11164;48.818;2.322;2023-04-01T07:47:05;99573.13;;;13.91;40.59
22000;BME280;11164;48.818;2.322;2023-04-01T07:52:23;99585.78;;;14.02;41.45
22000;BME280;11164;48.818;2.322;2023-04-01T07:54:58;99578.63;;;14.30;40.09
22000;BME280;11164;48.818;2.322;2023-04-01T07:58:04;99585.16;;;13.83;39.98
22000;BME280;11164;48.818;2.322;2023-04-01T08:00:40;99579.22;;;13.24;42.03
22000;BME280;11164;48.818;2.322;2023-04-01T08:03:20;99594.72;;;13.00;41.33
22000;BME280;11164;48.818;2.322;2023-04-01T08:11:40;99576.16;;;13.49;41.04
22000;BME280;11164;48.818;2.322;2023-04-01T08:14:45;99593.81;;;13.23;40.78
22000;BME280;11164;48.818;2.322;2023-04-01T08:17:18;99605.22;;;13.99;41.19
22000;BME280;11164;48.818;2.322;2023-04-01T08:19:58;99588.72;;;14.18;40.17
22000;BME280;11164;48.818;2.322;2023-04-01T08:24:55;99601.84;;;14.26;40.89
22000;BME280;11164;48.818;2.322;2023-04-01T08:27:31;99611.06;;;14.42;39.94
22000;BME280;11164;48.818;2.322;2023-04-01T08:30:01;99613.19;;;14.40;37.61
22000;BME280;11164;48.818;2.322;2023-04-01T08:32:36;99607.16;;;14.16;38.81
22000;BME280;11164;48.818;2.322;2023-04-01T08:35:11;99599.28;;;14.53;38.15
22000;BME280;11164;48.818;2.322;2023-04-01T08:37:41;99609.25;;;14.48;40.19
22000;BME280;11164;48.818;2.322;2023-04-01T08:46:19;99615.84;;;14.74;38.82
22000;BME280;11164;48.818;2.322;2023-04-01T08:54:37;99611.47;;;14.90;37.15
22000;BME280;11164;48.818;2.322;2023-04-01T08:57:24;99614.31;;;15.71;35.29
22000;BME280;11164;48.818;2.322;2023-04-01T09:24:31;99616.88;;;14.51;38.76
22000;BME280;11164;48.818;2.322;2023-04-01T09:41:32;99626.66;;;14.35;39.63
22000;BME280;11164;48.818;2.322;2023-04-01T09:44:02;99634.72;;;15.03;38.48
22000;BME280;11164;48.818;2.322;2023-04-01T09:49:43;99638.31;;;15.30;35.87
22000;BME280;11164;48.818;2.322;2023-04-01T10:04:10;99648.84;;;15.49;36.09
22000;BME280;11164;48.818;2.322;2023-04-01T10:18:17;99652.38;;;15.99;32.83
22000;BME280;11164;48.818;2.322;2023-04-01T10:29:20;99630.56;;;17.06;30.87
22000;BME280;11164;48.818;2.322;2023-04-01T10:35:20;99632.81;;;16.66;30.81
22000;BME280;11164;48.818;2.322;2023-04-01T10:38:19;99666.19;;;15.92;32.03
22000;BME280;11164;48.818;2.322;2023-04-01T10:41:14;99638.56;;;17.38;29.78
22000;BME280;11164;48.818;2.322;2023-04-01T11:11:03;99626.69;;;16.97;29.99
22000;BME280;11164;48.818;2.322;2023-04-01T11:35:50;99600.81;;;17.78;29.74
22000;BME280;11164;48.818;2.322;2023-04-01T11:41:19;99609.94;;;17.25;28.90
22000;BME280;11164;48.818;2.322;2023-04-01T11:44:14;99606.69;;;17.34;29.24
22000;BME280;11164;48.818;2.322;2023-04-01T11:47:03;99623.13;;;17.59;29.21
22000;BME280;11164;48.818;2.322;2023-04-01T11:49:59;99630.09;;;16.66;30.10
22000;BME280;11164;48.818;2.322;2023-04-01T11:55:18;99613.94;;;16.22;32.44
22000;BME280;11164;48.818;2.322;2023-04-01T11:57:59;99617.75;;;16.59;31.51
22000;BME280;11164;48.818;2.322;2023-04-01T12:01:07;99641.03;;;16.77;29.96
22000;BME280;11164;48.818;2.322;2023-04-01T12:06:38;99628.22;;;16.77;29.66
22000;BME280;11164;48.818;2.322;2023-04-01T12:15:02;99636.13;;;16.41;31.01
22000;BME280;11164;48.818;2.322;2023-04-01T12:26:04;99661.47;;;17.32;30.57
22000;BME280;11164;48.818;2.322;2023-04-01T12:36:40;99630.63;;;17.21;29.16
22000;BME280;11164;48.818;2.322;2023-04-01T13:01:03;99634.22;;;17.32;30.75
22000;BME280;11164;48.818;2.322;2023-04-01T13:20:06;99624.47;;;18.96;28.46
22000;BME280;11164;48.818;2.322;2023-04-01T13:22:58;99625.19;;;19.22;27.91
22000;BME280;11164;48.818;2.322;2023-04-01T13:25:47;99614.00;;;19.18;27.17
22000;BME280;11164;48.818;2.322;2023-04-01T13:31:29;99612.16;;;18.88;27.04
22000;BME280;11164;48.818;2.322;2023-04-01T13:34:13;99602.97;;;19.44;26.82
22000;BME280;11164;48.818;2.322;2023-04-01T13:36:55;99604.88;;;19.38;26.98
22000;BME280;11164;48.818;2.322;2023-04-01T13:39:47;99604.97;;;19.67;27.27
22000;BME280;11164;48.818;2.322;2023-04-01T13:42:25;99604.28;;;19.46;26.65
22000;BME280;11164;48.818;2.322;2023-04-01T13:44:59;99604.31;;;19.41;28.30
22000;BME280;11164;48.818;2.322;2023-04-01T13:55:54;99627.72;;;18.98;28.17
22000;BME280;11164;48.818;2.322;2023-04-01T13:58:43;99624.81;;;18.63;29.31
22000;BME280;11164;48.818;2.322;2023-04-01T14:01:57;99627.72;;;18.98;28.15
22000;BME280;11164;48.818;2.322;2023-04-01T14:06:58;99628.25;;;19.05;28.39
22000;BME280;11164;48.818;2.322;2023-04-01T14:09:45;99630.66;;;19.27;27.09
22000;BME280;11164;48.818;2.322;2023-04-01T14:12:35;99632.94;;;18.84;27.65
22000;BME280;11164;48.818;2.322;2023-04-01T14:15:14;99629.75;;;18.41;29.43
22000;BME280;11164;48.818;2.322;2023-04-01T14:20:26;99650.75;;;18.14;30.30
22000;BME280;11164;48.818;2.322;2023-04-01T14:23:13;99641.78;;;18.34;30.44
22000;BME280;11164;48.818;2.322;2023-04-01T14:34:28;99651.06;;;17.24;30.97
22000;BME280;11164;48.818;2.322;2023-04-01T14:47:53;99657.31;;;18.13;30.26
22000;BME280;11164;48.818;2.322;2023-04-01T14:50:29;99641.75;;;17.98;30.50
22000;BME280;11164;48.818;2.322;2023-04-01T14:58:18;99644.50;;;18.40;29.70
22000;BME280;11164;48.818;2.322;2023-04-01T15:17:29;99689.13;;;17.67;29.38
22000;BME280;11164;48.818;2.322;2023-04-01T15:23:13;99689.03;;;16.93;30.89
22000;BME280;11164;48.818;2.322;2023-04-01T15:26:11;99701.50;;;16.84;31.05
22000;BME280;11164;48.818;2.322;2023-04-01T15:28:47;99710.19;;;16.81;30.97
22000;BME280;11164;48.818;2.322;2023-04-01T15:31:22;99701.44;;;17.16;30.09
22000;BME280;11164;48.818;2.322;2023-04-01T15:36:53;99724.19;;;16.30;31.86
22000;BME280;11164;48.818;2.322;2023-04-01T15:42:11;99744.34;;;15.80;33.17
22000;BME280;11164;48.818;2.322;2023-04-01T15:49:56;99738.44;;;17.55;31.92
22000;BME280;11164;48.818;2.322;2023-04-01T15:57:51;99736.22;;;16.66;33.52
22000;BME280;11164;48.818;2.322;2023-04-01T16:00:40;99745.50;;;16.38;34.16
22000;BME280;11164;48.818;2.322;2023-04-01T16:14:36;99787.94;;;14.78;40.24
22000;BME280;11164;48.818;2.322;2023-04-01T16:20:03;99786.31;;;14.77;39.21
22000;BME280;11164;48.818;2.322;2023-04-01T16:22:45;99781.22;;;15.53;35.76
22000;BME280;11164;48.818;2.322;2023-04-01T16:25:17;99790.16;;;14.64;35.91
22000;BME280;11164;48.818;2.322;2023-04-01T16:28:15;99784.31;;;14.55;39.45
22000;BME280;11164;48.818;2.322;2023-04-01T16:30:55;99784.66;;;14.76;38.70
22000;BME280;11164;48.818;2.322;2023-04-01T16:33:49;99795.59;;;14.81;41.06
22000;BME280;11164;48.818;2.322;2023-04-01T16:36:26;99805.22;;;14.72;38.80
22000;BME280;11164;48.818;2.322;2023-04-01T16:39:25;99806.91;;;14.90;38.76
22000;BME280;11164;48.818;2.322;2023-04-01T16:44:55;99824.06;;;14.95;39.76
22000;BME280;11164;48.818;2.322;2023-04-01T16:47:35;99814.56;;;14.93;37.95
22000;BME280;11164;48.818;2.322;2023-04-01T16:50:13;99820.75;;;14.59;37.69
22000;BME280;11164;48.818;2.322;2023-04-01T16:52:59;99824.00;;;14.44;40.38
22000;BME280;11164;48.818;2.322;2023-04-01T16:55:45;99814.34;;;14.66;39.64
22000;BME280;11164;48.818;2.322;2023-04-01T16:58:26;99824.66;;;15.14;37.77
22000;BME280;11164;48.818;2.322;2023-04-01T17:01:01;99822.28;;;14.84;39.20
22000;BME280;11164;48.818;2.322;2023-04-01T17:03:33;99827.03;;;14.48;38.02
22000;BME280;11164;48.818;2.322;2023-04-01T17:06:26;99823.28;;;14.66;38.91
22000;BME280;11164;48.818;2.322;2023-04-01T17:19:55;99844.34;;;14.30;40.25
22000;BME280;11164;48.818;2.322;2023-04-01T17:23:01;99847.19;;;14.23;41.84
22000;BME280;11164;48.818;2.322;2023-04-01T17:35:56;99872.84;;;13.57;39.51
